map of YLT home
YLT - Airport
Location
City:  Alert, Nunavut, Canada
Name:Alert Airport
ICAO:CYLT
IATA:YLT

Details
Type:Airport (Airfield)
Use:Military
Latitude:8231'04"N (82.517778)
Longitude:6216'50"W (-62.280555)
Elevation:100 ft (30 m)
Variation:47.49W (WMM2015v2 magnetic declination)
1.24 annual change
Runways:1
Longest:5500 ft (1676 m)

Time
Time Zone:UTC-5 (DST-4)
Local Time:

Weather
METAR:CYLT 041400Z 32007KT 15SM SKC M31/M34 A3022 RMK SLP239
TAF:CYLT 041415Z 0414/0502 32005KT P6SM FEW110
FM041800 VRB03KT P6SM SCT050
RMK NXT FCST BY 041800Z

Related Locations
Nearby:
Farthest:NZSP: 11911 mi / 19168 km
Amundsen-Scott South Pole Station [Jack F. Paulus Skiway], AQ

Find:

   beyond  
but within

Other Information
Maps:
NOTAMs:
Links:
Sources:

  
  • flag of Canada
  • flag of Nunavut
  

Airport Diagram

Airport diagram for YLT

Airport diagram PDF

Sectional Chart

Flight Planning
at skyvector.com

Satellite Image

Google Maps Satellite view

 

Copyright © 2004-2019 Karl L. Swartz. All rights reserved.
The Great Circle Mapper name and logo are trademarks of the Great Circle Mapper.
All other trademarks mentioned herein belong to their respective owners.
Please see credits for attibutions and further copyright information.

  Follow gcmap on Facebook Follow gcmap on Twitter GCmap on LinkedIn

hCard Microformat

Geo Microformat